Decoded Metar for VABB (BOMBAY in INDIA) (IATA:BOM) | Meteo·Mobile Aviation Weather
aviador You're here:

VABB Decoded Metar

BOMBAY in INDIA
Report Time2018-09-24 18:30:00
UTC Time2018-09-24 19:00:38
Flight Rules ifr IFR
Wind020° at 03 kt
W.Decomp.*RWY 32: 1.5 kt HW 2.6 kt RCW
RWY 09: 1.1 kt HW 2.8 kt LCW
W.Rank020° ranks 24
Current wind is below 020° avg. (4.9)
Visibility3500 m
Phenomena:Haze
Clouds:Few 020 Hf
Expected CloudBase > 1,600 ft AGL from Temp-Dew spread
CeilingNone
Temp28°C (ISA +13)
Dew Point24°C (79% RH)
Heat Index31.9°C
QNH1012 hPa
Density Alt1,952 ft
Elevation26 ft
Report Wrong Elevation
Raw Report
VABB 241830Z 02003KT 3500 HZ FEW020 28/24 Q1012 NOSIG=

Extra information for VABB:More info

Metar Taf Metar & Taf Last 4 Metars F.Rules Stats Wind Profile Meteogram Temp Stats Airport Information Weather charts Add Link Nearby VenuesMetar ALERT Operation Metar Decoded Social comments